Time;durP1;ratioP1;P1;durP2;ratioP2;P2;SDS_P1;SDS_P2;PMS_P1;PMS_P2;Temp;Humidity;BMP_temperature;BMP_pressure;BME280_temperature;BME280_humidity;BME280_pressure;Samples;Min_cycle;Max_cycle;Signal;HPM_P1;HPM_P2
2024/03/05 00:01:59;;;;;;;3.35;3.15;;;15.90;68.00;;;;;;4984107;28;20384;-76
2024/03/05 00:04:25;;;;;;;3.22;3.03;;;15.90;68.10;;;;;;4984567;28;20043;-76
2024/03/05 00:06:50;;;;;;;2.95;2.75;;;15.90;68.00;;;;;;4985497;28;20446;-76
2024/03/05 00:09:16;;;;;;;3.28;3.08;;;15.90;68.10;;;;;;4999579;28;20047;-76
2024/03/05 00:11:42;;;;;;;3.33;3.13;;;15.90;68.20;;;;;;4985902;28;20041;-76
2024/03/05 00:14:07;;;;;;;3.20;3.00;;;15.90;68.20;;;;;;4984824;28;20476;-76
2024/03/05 00:16:34;;;;;;;3.13;2.92;;;15.90;68.30;;;;;;4982186;28;20050;-76
2024/03/05 00:19:00;;;;;;;3.60;3.30;;;15.80;69.00;;;;;;4982268;28;20030;-76
2024/03/05 00:21:25;;;;;;;3.33;3.13;;;15.90;68.20;;;;;;4985155;28;20652;-76
2024/03/05 00:23:51;;;;;;;2.88;2.67;;;15.80;68.20;;;;;;4983671;28;20045;-76
2024/03/05 00:26:18;;;;;;;3.08;2.88;;;15.80;68.20;;;;;;4985217;28;20535;-76
2024/03/05 00:28:44;;;;;;;3.08;2.88;;;15.80;68.20;;;;;;4982447;28;20075;-77
2024/03/05 00:31:10;;;;;;;2.50;2.40;;;15.80;68.30;;;;;;5000280;28;20049;-77
2024/03/05 00:33:35;;;;;;;3.35;3.15;;;15.80;68.30;;;;;;4966326;28;20054;-76
2024/03/05 00:36:03;;;;;;;2.42;2.33;;;15.80;68.30;;;;;;4966543;28;20034;-76
2024/03/05 00:38:29;;;;;;;3.13;2.90;;;15.80;68.30;;;;;;4964400;28;20045;-76
2024/03/05 00:40:55;;;;;;;3.10;2.67;;;15.80;68.40;;;;;;4959649;28;20053;-76
2024/03/05 00:43:21;;;;;;;2.95;2.75;;;15.80;68.50;;;;;;4984855;28;20046;-76
2024/03/05 00:45:46;;;;;;;2.95;2.75;;;15.80;68.40;;;;;;4985286;28;20057;-76
2024/03/05 00:48:12;;;;;;;2.70;2.60;;;15.80;68.40;;;;;;4985249;28;20133;-77
2024/03/05 00:50:38;;;;;;;2.95;2.75;;;15.70;68.30;;;;;;5001636;28;20026;-76
2024/03/05 00:53:04;;;;;;;2.67;2.58;;;15.70;68.40;;;;;;5001284;28;20408;-76
2024/03/05 00:55:30;;;;;;;2.88;2.70;;;15.70;68.40;;;;;;4984559;28;20027;-76
2024/03/05 00:57:56;;;;;;;2.55;2.35;;;15.70;68.50;;;;;;4983213;28;20023;-76
2024/03/05 01:00:24;;;;;;;2.83;2.63;;;15.70;68.50;;;;;;4981466;28;20440;-76
2024/03/05 01:02:52;;;;;;;2.67;2.47;;;15.70;68.50;;;;;;4986549;28;20610;-76
2024/03/05 01:05:18;;;;;;;2.30;2.20;;;15.70;68.50;;;;;;4984553;28;20050;-76
2024/03/05 01:07:44;;;;;;;2.33;2.22;;;15.70;68.60;;;;;;4986235;28;20073;-76
2024/03/05 01:10:10;;;;;;;2.35;2.25;;;15.70;68.60;;;;;;4986059;28;20038;-76
2024/03/05 01:12:35;;;;;;;2.30;2.20;;;15.60;69.30;;;;;;4983132;28;20050;-76
2024/03/05 01:15:01;;;;;;;2.33;2.22;;;15.60;68.60;;;;;;4985649;28;20496;-76
2024/03/05 01:17:27;;;;;;;2.42;2.22;;;15.60;68.40;;;;;;4986254;28;20113;-76
2024/03/05 01:19:53;;;;;;;2.50;2.40;;;15.70;68.60;;;;;;4982496;28;20111;-76
2024/03/05 01:22:19;;;;;;;2.03;1.92;;;15.60;68.60;;;;;;5003934;28;20460;-76
2024/03/05 01:24:44;;;;;;;2.58;2.47;;;15.60;68.60;;;;;;4988617;28;20142;-76
2024/03/05 01:27:10;;;;;;;2.50;2.30;;;15.60;68.70;;;;;;4989820;28;20498;-76
2024/03/05 01:29:35;;;;;;;2.40;2.30;;;15.60;68.80;;;;;;4988700;28;20034;-76
2024/03/05 01:32:01;;;;;;;2.55;2.42;;;15.60;68.70;;;;;;4988685;28;20415;-76
2024/03/05 01:34:30;;;;;;;2.22;2.13;;;15.60;68.70;;;;;;4984442;28;20073;-76
2024/03/05 01:36:57;;;;;;;2.17;2.08;;;15.60;68.80;;;;;;4986633;28;20039;-76
2024/03/05 01:39:26;;;;;;;2.28;2.08;;;15.60;68.80;;;;;;4989017;28;20620;-76
2024/03/05 01:41:52;;;;;;;1.95;1.85;;;15.60;68.70;;;;;;4989547;28;20054;-76
2024/03/05 01:44:22;;;;;;;2.50;2.40;;;15.60;68.80;;;;;;4990184;28;20035;-76
2024/03/05 01:46:52;;;;;;;2.22;1.80;;;15.60;68.80;;;;;;5001326;28;20046;-76
2024/03/05 01:49:18;;;;;;;2.13;2.00;;;15.50;68.50;;;;;;4986829;28;20046;-76
2024/03/05 01:51:44;;;;;;;1.85;1.75;;;15.50;68.80;;;;;;4988620;28;20054;-76
2024/03/05 01:54:10;;;;;;;1.73;1.63;;;15.50;68.60;;;;;;4985163;28;20439;-76
2024/03/05 01:56:35;;;;;;;2.60;2.03;;;15.50;69.50;;;;;;4969466;28;20454;-76
2024/03/05 01:59:01;;;;;;;1.75;1.65;;;15.50;68.60;;;;;;4988774;28;20747;-76
2024/03/05 02:01:27;;;;;;;1.90;1.80;;;15.50;68.80;;;;;;5002318;28;20070;-76
2024/03/05 02:03:53;;;;;;;1.80;1.70;;;15.50;69.40;;;;;;4986649;28;20562;-76
2024/03/05 02:06:19;;;;;;;2.00;1.90;;;15.50;68.60;;;;;;4987336;28;20038;-76
2024/03/05 02:08:46;;;;;;;2.10;2.00;;;15.50;68.30;;;;;;4968804;28;20046;-76
2024/03/05 02:11:12;;;;;;;2.10;2.00;;;15.50;68.70;;;;;;4988171;28;20050;-76
2024/03/05 02:13:38;;;;;;;2.00;1.90;;;15.40;68.50;;;;;;4986340;28;20092;-76
2024/03/05 02:16:05;;;;;;;1.90;1.80;;;15.50;68.40;;;;;;4970650;28;20052;-76
2024/03/05 02:18:31;;;;;;;2.20;2.03;;;15.50;68.80;;;;;;4985630;28;20058;-76
2024/03/05 02:21:02;;;;;;;1.90;1.80;;;15.50;68.70;;;;;;4967913;28;20042;-76
2024/03/05 02:23:27;;;;;;;1.83;1.70;;;15.50;68.70;;;;;;4988972;28;20041;-76
2024/03/05 02:25:53;;;;;;;1.70;1.60;;;15.50;68.70;;;;;;4983764;28;20050;-76
2024/03/05 02:28:18;;;;;;;1.75;1.65;;;15.40;68.40;;;;;;4983255;28;20035;-75
2024/03/05 02:30:44;;;;;;;1.90;1.80;;;15.40;68.40;;;;;;4966520;28;20122;-75
2024/03/05 02:33:10;;;;;;;1.92;1.83;;;15.40;68.40;;;;;;4970589;28;20050;-75
2024/03/05 02:35:36;;;;;;;1.75;1.65;;;15.40;68.20;;;;;;4985228;28;20049;-75
2024/03/05 02:38:05;;;;;;;1.50;1.40;;;15.40;68.40;;;;;;4988335;28;20046;-75
2024/03/05 02:40:31;;;;;;;1.75;1.63;;;15.40;68.20;;;;;;4981942;28;20100;-75
2024/03/05 02:42:56;;;;;;;1.77;1.67;;;15.40;68.00;;;;;;4987256;28;20452;-75
2024/03/05 02:45:22;;;;;;;1.40;1.30;;;15.40;68.00;;;;;;5002304;28;20054;-75
2024/03/05 02:47:47;;;;;;;1.67;1.58;;;15.40;68.00;;;;;;4981805;28;20408;-74
2024/03/05 02:50:14;;;;;;;1.90;1.80;;;15.40;68.90;;;;;;4988769;28;20035;-75
2024/03/05 02:52:40;;;;;;;1.60;1.50;;;15.40;68.10;;;;;;4986906;28;20065;-76
2024/03/05 02:55:09;;;;;;;1.58;1.48;;;15.40;68.10;;;;;;4953983;28;20058;-75
2024/03/05 02:57:40;;;;;;;1.70;1.60;;;15.40;68.10;;;;;;4983657;28;20204;-76
2024/03/05 03:00:08;;;;;;;1.58;1.48;;;15.40;68.00;;;;;;4987487;28;20041;-75
2024/03/05 03:02:34;;;;;;;1.40;1.30;;;15.40;68.00;;;;;;4986003;28;20565;-76
2024/03/05 03:05:00;;;;;;;1.65;1.55;;;15.40;67.90;;;;;;4987817;28;20050;-75
2024/03/05 03:07:26;;;;;;;1.50;1.40;;;15.40;68.00;;;;;;4986248;28;20042;-75
2024/03/05 03:09:53;;;;;;;1.40;1.40;;;15.30;68.80;;;;;;4987107;28;20523;-75
2024/03/05 03:12:19;;;;;;;1.52;1.42;;;15.40;68.00;;;;;;4985312;28;20092;-75
2024/03/05 03:14:44;;;;;;;1.52;1.42;;;15.30;68.00;;;;;;4983740;28;20053;-76
2024/03/05 03:17:10;;;;;;;1.52;1.42;;;15.30;68.00;;;;;;4983652;28;20050;-75
2024/03/05 03:19:36;;;;;;;1.33;1.23;;;15.30;67.90;;;;;;4982561;28;20031;-75
2024/03/05 03:22:02;;;;;;;2.90;1.20;;;15.30;68.00;;;;;;4968765;28;20534;-75
2024/03/05 03:24:28;;;;;;;1.40;1.30;;;15.30;67.90;;;;;;4983823;28;20066;-75
2024/03/05 03:26:54;;;;;;;1.30;1.30;;;15.30;68.00;;;;;;4987110;28;20108;-75
2024/03/05 03:29:20;;;;;;;1.70;1.60;;;15.30;68.00;;;;;;4988061;28;20145;-75
2024/03/05 03:31:45;;;;;;;1.27;1.20;;;15.30;68.00;;;;;;4985982;28;20582;-75
2024/03/05 03:34:12;;;;;;;1.40;1.30;;;15.30;68.20;;;;;;4986268;28;20511;-75
2024/03/05 03:36:37;;;;;;;1.48;1.38;;;15.30;68.20;;;;;;4986748;28;20046;-75
2024/03/05 03:39:03;;;;;;;1.45;1.35;;;15.30;68.10;;;;;;4986098;28;20096;-75
2024/03/05 03:41:28;;;;;;;1.45;1.35;;;15.30;68.10;;;;;;4986679;28;20076;-75
2024/03/05 03:43:54;;;;;;;1.38;1.27;;;15.30;68.10;;;;;;5001466;28;20499;-75
2024/03/05 03:46:20;;;;;;;1.27;1.23;;;15.30;68.10;;;;;;4986157;28;20126;-75
2024/03/05 03:48:45;;;;;;;0.90;0.90;;;15.30;68.10;;;;;;4978704;28;20074;-75
2024/03/05 03:51:12;;;;;;;1.63;1.52;;;15.30;68.10;;;;;;4968102;28;20571;-75
2024/03/05 03:53:42;;;;;;;1.45;1.35;;;15.30;68.10;;;;;;4984009;28;20046;-75
2024/03/05 03:56:09;;;;;;;1.65;1.55;;;15.30;68.00;;;;;;4985980;28;20414;-75
2024/03/05 03:58:35;;;;;;;1.05;1.05;;;15.20;68.00;;;;;;4982391;28;20073;-75
2024/03/05 04:01:02;;;;;;;1.40;1.30;;;15.30;68.00;;;;;;4985195;28;20468;-75
2024/03/05 04:03:28;;;;;;;1.30;1.20;;;15.20;68.10;;;;;;4986327;28;20505;-75
2024/03/05 04:05:54;;;;;;;1.10;1.10;;;15.20;68.10;;;;;;4967301;28;20513;-75
2024/03/05 04:08:20;;;;;;;1.30;1.20;;;15.20;68.00;;;;;;4987118;28;20068;-75
2024/03/05 04:10:45;;;;;;;1.10;1.02;;;15.20;68.10;;;;;;4985004;28;20042;-75
2024/03/05 04:13:11;;;;;;;0.77;0.77;;;15.20;68.10;;;;;;4985290;28;20081;-75
2024/03/05 04:15:37;;;;;;;1.10;1.10;;;15.20;68.10;;;;;;4949926;28;20084;-75
2024/03/05 04:18:03;;;;;;;0.93;0.93;;;15.20;68.20;;;;;;4986322;28;20034;-75
2024/03/05 04:20:28;;;;;;;0.90;0.90;;;15.20;68.10;;;;;;4987009;28;20116;-75
2024/03/05 04:22:54;;;;;;;1.08;1.08;;;15.20;68.10;;;;;;4981636;28;20041;-75
2024/03/05 04:25:25;;;;;;;1.00;1.00;;;15.20;68.20;;;;;;4986276;28;20516;-75
2024/03/05 04:27:50;;;;;;;1.13;1.02;;;15.20;68.20;;;;;;4982293;28;20050;-75
2024/03/05 04:30:16;;;;;;;1.10;1.10;;;15.10;68.10;;;;;;4985013;28;20069;-75
2024/03/05 04:32:53;;;;;;;1.13;1.02;;;15.20;68.10;;;;;;4981828;28;20042;-75
2024/03/05 04:35:19;;;;;;;1.05;1.05;;;15.20;68.10;;;;;;4987864;28;20054;-75
2024/03/05 04:37:45;;;;;;;0.80;0.80;;;15.20;68.10;;;;;;4981786;28;20080;-75
2024/03/05 04:40:11;;;;;;;1.13;1.00;;;15.20;68.20;;;;;;4985167;28;20046;-75
2024/03/05 04:42:37;;;;;;;0.90;0.90;;;15.20;68.20;;;;;;4983013;28;20054;-75
2024/03/05 04:45:03;;;;;;;1.10;1.10;;;15.20;68.20;;;;;;4984993;28;21010;-75
2024/03/05 04:47:29;;;;;;;1.00;1.00;;;15.20;68.20;;;;;;4970738;28;20559;-74
2024/03/05 04:49:55;;;;;;;1.42;0.98;;;15.10;68.20;;;;;;5000947;28;20057;-75
2024/03/05 04:52:21;;;;;;;0.90;0.90;;;15.10;68.10;;;;;;4982946;28;20076;-74
2024/03/05 04:54:47;;;;;;;0.70;0.70;;;15.10;68.10;;;;;;4984190;28;20050;-75
2024/03/05 04:57:13;;;;;;;0.95;0.95;;;15.10;68.10;;;;;;4990249;28;20046;-75
2024/03/05 04:59:39;;;;;;;1.15;1.08;;;15.10;68.30;;;;;;5004786;28;20088;-75
2024/03/05 05:02:05;;;;;;;0.82;0.82;;;15.10;68.00;;;;;;4990892;28;20075;-75
2024/03/05 05:04:30;;;;;;;1.00;1.00;;;15.10;68.00;;;;;;4988525;28;20046;-74
2024/03/05 05:06:56;;;;;;;0.77;0.77;;;15.10;68.20;;;;;;5003398;28;20047;-74
2024/03/05 05:09:22;;;;;;;0.93;0.93;;;15.10;68.20;;;;;;4989772;28;20045;-75
2024/03/05 05:11:48;;;;;;;0.68;0.68;;;15.10;68.10;;;;;;4988179;28;20085;-75
2024/03/05 05:14:13;;;;;;;0.70;0.70;;;15.10;69.00;;;;;;4991920;28;20141;-75
2024/03/05 05:16:39;;;;;;;0.98;0.70;;;15.10;68.30;;;;;;4987947;28;20066;-75
2024/03/05 05:19:04;;;;;;;0.70;0.70;;;15.10;68.20;;;;;;4989260;28;20543;-75
2024/03/05 05:21:31;;;;;;;0.70;0.70;;;15.10;68.30;;;;;;4987636;28;20046;-75
2024/03/05 05:23:57;;;;;;;0.70;0.70;;;15.10;68.20;;;;;;4966823;28;20058;-75
2024/03/05 05:26:22;;;;;;;0.80;0.80;;;15.10;68.30;;;;;;4990164;28;20053;-75
2024/03/05 05:28:50;;;;;;;0.80;0.80;;;15.10;68.20;;;;;;4988502;28;20404;-75
2024/03/05 05:31:26;;;;;;;0.70;0.70;;;15.00;68.20;;;;;;4981884;28;20035;-75
2024/03/05 05:33:52;;;;;;;1.17;0.60;;;15.00;68.20;;;;;;4985831;28;20057;-75
2024/03/05 05:36:17;;;;;;;0.70;0.70;;;15.10;68.20;;;;;;4988703;28;20042;-75
2024/03/05 05:38:44;;;;;;;0.82;0.77;;;15.00;68.20;;;;;;4989148;28;20042;-75
2024/03/05 05:41:09;;;;;;;0.70;0.70;;;15.00;68.20;;;;;;4987460;28;20060;-75
2024/03/05 05:43:35;;;;;;;0.60;0.60;;;15.00;69.00;;;;;;4988449;28;20046;-75
2024/03/05 05:46:04;;;;;;;0.60;0.60;;;15.00;68.20;;;;;;4989201;28;20133;-75
2024/03/05 05:48:31;;;;;;;0.57;0.57;;;15.00;68.20;;;;;;4988785;28;20054;-74
2024/03/05 05:50:58;;;;;;;0.70;0.70;;;15.00;68.20;;;;;;4987408;28;20443;-75
2024/03/05 05:53:24;;;;;;;0.50;0.50;;;15.00;68.20;;;;;;4990767;28;20165;-75
2024/03/05 05:55:49;;;;;;;0.73;0.70;;;15.00;68.20;;;;;;4987892;28;20125;-74
2024/03/05 05:58:15;;;;;;;0.50;0.50;;;15.00;68.40;;;;;;4987957;28;20038;-75
2024/03/05 06:00:41;;;;;;;0.50;0.50;;;15.00;68.20;;;;;;4988100;28;20022;-75
2024/03/05 06:03:08;;;;;;;0.63;0.63;;;15.00;68.30;;;;;;4988665;28;20058;-75
2024/03/05 06:05:36;;;;;;;0.52;0.52;;;15.00;68.20;;;;;;4988264;28;20058;-75
2024/03/05 06:08:02;;;;;;;0.70;0.70;;;15.00;68.20;;;;;;4986438;28;20050;-75
2024/03/05 06:10:28;;;;;;;1.35;0.60;;;15.00;68.20;;;;;;4971089;28;20043;-75
2024/03/05 06:12:54;;;;;;;0.60;0.60;;;15.00;68.20;;;;;;4987193;28;20473;-75
2024/03/05 06:15:20;;;;;;;0.40;0.40;;;15.00;68.20;;;;;;4988852;28;20045;-74
2024/03/05 06:17:45;;;;;;;0.60;0.60;;;15.00;68.20;;;;;;4985588;28;20113;-75
2024/03/05 06:20:12;;;;;;;0.60;0.60;;;15.00;68.20;;;;;;4988837;28;20042;-75
2024/03/05 06:22:41;;;;;;;0.90;0.73;;;14.90;68.20;;;;;;5002812;28;20043;-75
2024/03/05 06:25:11;;;;;;;0.60;0.60;;;15.00;68.30;;;;;;4985628;28;20531;-75
2024/03/05 06:27:37;;;;;;;0.60;0.60;;;15.00;68.20;;;;;;4987821;28;20527;-75
2024/03/05 06:30:15;;;;;;;0.60;0.60;;;15.00;68.20;;;;;;4987690;28;20050;-75
2024/03/05 06:32:46;;;;;;;0.50;0.50;;;15.00;68.20;;;;;;4982898;28;20034;-75
2024/03/05 06:35:12;;;;;;;0.65;0.65;;;15.00;68.30;;;;;;4988055;28;20046;-75
2024/03/05 06:37:45;;;;;;;0.57;0.57;;;15.00;68.30;;;;;;4985640;28;20134;-75
2024/03/05 06:40:11;;;;;;;0.50;0.50;;;14.90;68.10;;;;;;4984601;28;20038;-75
2024/03/05 06:42:38;;;;;;;0.40;0.40;;;14.90;68.10;;;;;;5002350;28;20077;-75
2024/03/05 06:45:08;;;;;;;0.43;0.43;;;14.90;68.30;;;;;;4967995;28;20055;-75
2024/03/05 06:47:44;;;;;;;0.40;0.40;;;14.90;68.20;;;;;;4988400;28;20064;-75
2024/03/05 06:50:19;;;;;;;0.55;0.50;;;14.90;68.10;;;;;;4987286;28;20138;-75
2024/03/05 06:58:15;;;;;;;0.38;0.38;;;14.90;68.20;;;;;;4984945;28;20092;-74
2024/03/05 07:00:41;;;;;;;0.75;0.50;;;14.90;68.20;;;;;;4984281;28;20034;-75
2024/03/05 07:03:06;;;;;;;0.40;0.40;;;14.90;68.30;;;;;;4985490;28;20038;-75
2024/03/05 07:05:32;;;;;;;0.80;0.60;;;14.90;69.00;;;;;;4987786;28;20038;-75
2024/03/05 07:08:00;;;;;;;1.25;0.70;;;14.90;68.60;;;;;;5000815;28;20065;-75
2024/03/05 07:10:28;;;;;;;0.55;0.55;;;14.90;68.40;;;;;;4985281;28;20034;-75
2024/03/05 07:12:55;;;;;;;1.25;0.50;;;14.90;68.30;;;;;;4971878;28;20042;-75
2024/03/05 07:15:21;;;;;;;0.80;0.80;;;14.90;68.10;;;;;;4985122;28;20050;-75
2024/03/05 07:17:54;;;;;;;1.05;0.45;;;15.00;68.30;;;;;;4960411;28;20621;-75
2024/03/05 07:20:27;;;;;;;1.85;0.50;;;15.00;68.20;;;;;;4985871;28;20054;-76
2024/03/05 07:22:53;;;;;;;0.60;0.60;;;15.00;68.40;;;;;;4985278;28;20516;-75
2024/03/05 07:25:18;;;;;;;0.40;0.40;;;15.00;68.40;;;;;;4985386;28;20515;-75
2024/03/05 07:27:45;;;;;;;0.60;0.60;;;15.00;69.10;;;;;;4985233;28;20081;-75
2024/03/05 07:30:17;;;;;;;0.60;0.60;;;15.00;68.50;;;;;;4982668;28;20042;-76
2024/03/05 07:32:46;;;;;;;0.50;0.50;;;15.00;68.40;;;;;;4983488;28;20541;-75
2024/03/05 07:35:12;;;;;;;0.95;0.60;;;15.00;68.30;;;;;;4984816;28;20050;-75
2024/03/05 07:37:41;;;;;;;0.85;0.70;;;15.00;68.40;;;;;;4983420;28;20582;-76
2024/03/05 07:40:15;;;;;;;0.40;0.40;;;15.10;68.80;;;;;;4981780;28;20478;-76
2024/03/05 07:42:47;;;;;;;1.23;0.90;;;15.10;68.60;;;;;;4986645;28;20053;-76
2024/03/05 07:45:16;;;;;;;1.75;0.43;;;15.10;69.60;;;;;;4984804;28;20061;-76
2024/03/05 07:47:43;;;;;;;0.88;0.70;;;15.00;68.60;;;;;;4982777;28;20578;-76
2024/03/05 07:50:12;;;;;;;4.10;0.70;;;15.00;68.70;;;;;;4986365;28;20070;-76
2024/03/05 07:52:47;;;;;;;1.13;0.70;;;15.00;69.00;;;;;;4980591;28;20057;-76
2024/03/05 07:55:15;;;;;;;0.70;0.70;;;15.00;68.80;;;;;;4983837;28;20128;-76
2024/03/05 07:57:41;;;;;;;1.75;0.30;;;15.00;68.80;;;;;;5001133;28;20035;-75
2024/03/05 08:00:20;;;;;;;0.50;0.50;;;15.00;69.00;;;;;;4983987;28;20046;-75
2024/03/05 08:02:46;;;;;;;0.60;0.60;;;15.00;69.00;;;;;;4985955;28;20529;-76
2024/03/05 08:05:17;;;;;;;0.47;0.45;;;15.00;68.80;;;;;;4987234;28;20081;-76
2024/03/05 08:07:43;;;;;;;0.32;0.32;;;15.00;69.00;;;;;;4985165;28;20085;-76
2024/03/05 08:10:09;;;;;;;0.30;0.20;;;15.00;69.00;;;;;;4986397;28;20477;-76
2024/03/05 08:12:35;;;;;;;0.57;0.57;;;15.00;69.00;;;;;;4986753;28;20047;-75
2024/03/05 08:15:04;;;;;;;0.65;0.40;;;15.00;68.80;;;;;;4985792;28;20123;-76
2024/03/05 08:17:35;;;;;;;0.40;0.40;;;14.90;68.90;;;;;;4986798;28;20038;-76
2024/03/05 08:20:01;;;;;;;0.40;0.40;;;14.90;69.60;;;;;;4986250;28;20046;-76
2024/03/05 08:22:27;;;;;;;0.43;0.43;;;14.90;68.80;;;;;;4986072;28;20066;-76
2024/03/05 08:24:53;;;;;;;0.50;0.50;;;14.90;68.80;;;;;;4985179;28;20074;-75
2024/03/05 08:27:18;;;;;;;0.40;0.35;;;14.90;68.80;;;;;;4985469;28;20053;-76
2024/03/05 08:29:44;;;;;;;0.50;0.45;;;15.00;68.90;;;;;;4987075;28;20050;-75
2024/03/05 08:32:11;;;;;;;0.60;0.40;;;14.90;68.80;;;;;;5004447;28;20035;-76
2024/03/05 08:34:38;;;;;;;0.30;0.30;;;15.00;68.80;;;;;;4989099;28;20524;-75
2024/03/05 08:37:04;;;;;;;0.50;0.50;;;15.00;68.90;;;;;;4989707;28;20033;-76
2024/03/05 08:39:29;;;;;;;1.63;0.65;;;15.00;68.60;;;;;;4986762;28;20042;-75
2024/03/05 08:41:55;;;;;;;0.35;0.35;;;15.00;68.70;;;;;;4989323;28;20169;-75
2024/03/05 08:44:21;;;;;;;0.28;0.28;;;15.00;68.80;;;;;;4991268;28;20550;-76
2024/03/05 08:46:47;;;;;;;1.27;0.40;;;15.00;68.60;;;;;;4985324;28;20039;-75
2024/03/05 08:49:12;;;;;;;0.55;0.30;;;15.00;68.80;;;;;;4990243;28;20403;-75
2024/03/05 08:51:38;;;;;;;0.68;0.40;;;15.00;68.70;;;;;;4988692;28;20092;-75
2024/03/05 08:54:08;;;;;;;0.70;0.60;;;15.00;68.70;;;;;;4989702;28;20042;-76
2024/03/05 08:56:37;;;;;;;0.30;0.30;;;15.00;68.70;;;;;;4989746;28;20522;-76
2024/03/05 08:59:06;;;;;;;0.50;0.40;;;15.00;68.60;;;;;;5003840;28;20575;-76
2024/03/05 09:01:33;;;;;;;0.85;0.57;;;15.00;68.50;;;;;;4981808;28;20042;-75
2024/03/05 09:04:00;;;;;;;0.38;0.38;;;15.10;68.50;;;;;;4989035;28;20516;-75
2024/03/05 09:06:27;;;;;;;0.52;0.30;;;15.10;68.40;;;;;;4989775;28;20451;-76
2024/03/05 09:08:52;;;;;;;0.40;0.40;;;15.20;68.20;;;;;;5003508;28;20042;-76
2024/03/05 09:11:18;;;;;;;0.30;0.30;;;15.20;68.20;;;;;;4989384;28;20109;-76
2024/03/05 09:13:46;;;;;;;0.40;0.40;;;15.20;68.00;;;;;;4985775;28;20053;-76
2024/03/05 09:16:12;;;;;;;0.50;0.40;;;15.20;67.90;;;;;;4985162;28;20531;-76
2024/03/05 09:18:38;;;;;;;1.13;0.43;;;15.20;68.10;;;;;;4985977;28;20090;-75
2024/03/05 09:21:04;;;;;;;0.50;0.50;;;15.20;67.80;;;;;;4988896;28;20031;-76
2024/03/05 09:23:30;;;;;;;0.30;0.30;;;15.30;67.60;;;;;;4991009;28;20121;-75
2024/03/05 09:25:56;;;;;;;0.40;0.40;;;15.30;67.60;;;;;;4988167;28;20183;-76
2024/03/05 09:28:21;;;;;;;0.30;0.30;;;15.20;68.50;;;;;;4989431;28;20114;-76
2024/03/05 09:30:47;;;;;;;0.30;0.30;;;15.30;67.80;;;;;;4989530;28;20042;-76
2024/03/05 09:33:13;;;;;;;0.75;0.22;;;15.20;67.80;;;;;;4988576;28;20038;-76
2024/03/05 09:35:39;;;;;;;0.25;0.15;;;15.20;67.90;;;;;;4990351;28;20494;-76
2024/03/05 09:38:05;;;;;;;0.40;0.40;;;15.30;67.80;;;;;;4989196;28;20034;-76
2024/03/05 09:40:30;;;;;;;0.45;0.30;;;15.30;67.70;;;;;;4984122;28;20078;-75
2024/03/05 09:42:58;;;;;;;0.50;0.30;;;15.30;67.80;;;;;;4988360;28;20073;-76
2024/03/05 09:45:24;;;;;;;0.20;0.20;;;15.20;67.70;;;;;;4986835;28;20077;-76
2024/03/05 09:47:49;;;;;;;0.32;0.32;;;15.30;67.80;;;;;;4986050;28;20517;-76
2024/03/05 09:50:15;;;;;;;3.50;0.20;;;15.20;68.50;;;;;;4988797;28;20527;-76
2024/03/05 09:52:43;;;;;;;0.30;0.30;;;15.30;67.60;;;;;;4973504;28;20042;-75
2024/03/05 09:55:11;;;;;;;0.30;0.30;;;15.30;67.50;;;;;;4988664;28;20061;-75
2024/03/05 09:57:38;;;;;;;0.70;0.50;;;15.30;67.60;;;;;;4987185;28;20039;-76
2024/03/05 10:00:05;;;;;;;0.30;0.30;;;15.30;67.50;;;;;;4986669;28;20049;-76
2024/03/05 10:02:31;;;;;;;2.75;0.38;;;15.30;67.30;;;;;;4970869;28;20140;-76
2024/03/05 10:04:58;;;;;;;0.47;0.47;;;15.30;67.50;;;;;;4985886;28;20042;-76
2024/03/05 10:07:25;;;;;;;0.47;0.30;;;15.30;67.60;;;;;;4982099;28;20528;-76
2024/03/05 10:10:14;;;;;;;0.68;0.35;;;15.30;67.80;;;;;;4985024;28;20100;-76
2024/03/05 10:12:39;;;;;;;0.35;0.35;;;15.30;67.80;;;;;;4989013;28;20042;-76
2024/03/05 10:15:13;;;;;;;0.30;0.22;;;15.30;67.60;;;;;;4987572;28;21022;-76
2024/03/05 10:17:48;;;;;;;0.28;0.28;;;15.30;67.60;;;;;;5001278;28;20050;-75
2024/03/05 10:20:31;;;;;;;0.28;0.17;;;15.30;67.60;;;;;;4988065;28;20528;-76
2024/03/05 10:22:58;;;;;;;0.22;0.22;;;15.40;67.90;;;;;;4968148;28;20053;-76
2024/03/05 10:25:24;;;;;;;0.35;0.30;;;15.50;66.90;;;;;;4988404;28;20054;-76
2024/03/05 10:27:50;;;;;;;0.20;0.20;;;15.50;66.90;;;;;;4987170;28;20050;-76
2024/03/05 10:30:48;;;;;;;0.30;0.30;;;15.60;66.80;;;;;;4987699;28;20519;-76
2024/03/05 10:33:13;;;;;;;0.30;0.30;;;15.60;66.50;;;;;;4986283;28;20050;-76
2024/03/05 10:35:41;;;;;;;0.20;0.20;;;15.70;66.30;;;;;;4989127;28;20147;-76
2024/03/05 10:38:14;;;;;;;0.82;0.20;;;15.70;66.10;;;;;;4988200;28;20053;-76
2024/03/05 10:40:43;;;;;;;0.28;0.20;;;15.80;66.00;;;;;;4987743;28;20049;-76
2024/03/05 10:43:09;;;;;;;0.30;0.20;;;15.80;65.90;;;;;;5002136;28;20459;-76
2024/03/05 10:45:39;;;;;;;0.30;0.30;;;15.80;65.90;;;;;;4987787;28;20053;-76
2024/03/05 10:48:07;;;;;;;0.25;0.25;;;15.80;66.80;;;;;;4987425;28;20088;-76
2024/03/05 10:50:35;;;;;;;1.23;0.30;;;15.80;65.80;;;;;;4988254;28;20591;-76
2024/03/05 10:53:01;;;;;;;0.88;0.35;;;15.90;66.00;;;;;;5000602;28;20049;-76
2024/03/05 10:55:26;;;;;;;0.20;0.20;;;15.90;65.80;;;;;;4983663;28;20050;-76
2024/03/05 11:00:40;;;;;;;0.30;0.30;;;15.90;65.70;;;;;;4986601;28;20046;-76
2024/03/05 11:03:09;;;;;;;0.38;0.30;;;15.90;65.60;;;;;;4986274;28;20061;-76
2024/03/05 11:05:47;;;;;;;0.10;0.10;;;15.90;65.70;;;;;;4985822;28;20420;-76
2024/03/05 11:08:13;;;;;;;0.50;0.50;;;15.90;65.70;;;;;;4987339;28;20507;-76
2024/03/05 11:10:39;;;;;;;0.50;0.50;;;16.00;65.70;;;;;;4953140;28;20043;-75
2024/03/05 11:13:04;;;;;;;0.22;0.22;;;16.00;65.50;;;;;;4966634;28;20092;-76
2024/03/05 11:15:30;;;;;;;0.45;0.45;;;16.00;65.60;;;;;;5002793;28;20057;-75
2024/03/05 11:17:57;;;;;;;0.40;0.38;;;16.10;65.70;;;;;;5001457;28;20508;-76
2024/03/05 11:20:42;;;;;;;0.38;0.25;;;16.00;65.50;;;;;;4988023;28;20486;-76
2024/03/05 11:23:11;;;;;;;0.30;0.30;;;16.00;65.50;;;;;;4987315;28;20038;-75
2024/03/05 11:25:40;;;;;;;0.40;0.40;;;16.00;65.60;;;;;;4981592;28;20120;-75
2024/03/05 11:28:06;;;;;;;0.40;0.32;;;16.10;65.70;;;;;;4984461;28;20049;-76
2024/03/05 11:30:31;;;;;;;0.30;0.30;;;16.00;65.30;;;;;;4987229;28;20133;-76
2024/03/05 11:33:12;;;;;;;0.30;0.30;;;16.00;65.50;;;;;;4981500;28;20043;-75
2024/03/05 11:35:40;;;;;;;0.65;0.50;;;16.00;65.60;;;;;;4984873;28;20050;-76
2024/03/05 11:38:10;;;;;;;0.47;0.30;;;16.10;65.70;;;;;;4986710;28;20045;-76
2024/03/05 11:40:36;;;;;;;0.30;0.30;;;16.00;65.70;;;;;;4986380;28;20101;-76
2024/03/05 11:43:03;;;;;;;0.35;0.35;;;16.00;65.70;;;;;;4985875;28;20042;-76
2024/03/05 11:45:47;;;;;;;0.22;0.22;;;16.00;65.60;;;;;;4983648;28;20072;-75
2024/03/05 11:48:18;;;;;;;0.28;0.28;;;16.00;65.80;;;;;;4985869;28;20500;-76
2024/03/05 11:50:44;;;;;;;0.40;0.20;;;16.00;65.80;;;;;;4985317;28;20519;-76
2024/03/05 11:53:10;;;;;;;0.20;0.20;;;16.00;65.90;;;;;;4996929;28;20035;-76
2024/03/05 11:55:35;;;;;;;0.20;0.20;;;15.90;65.80;;;;;;4984903;28;20060;-76
2024/03/05 11:58:01;;;;;;;0.20;0.20;;;16.00;65.80;;;;;;4985810;28;20531;-76
2024/03/05 12:00:28;;;;;;;0.35;0.30;;;16.00;65.90;;;;;;4987121;28;20415;-76
2024/03/05 12:02:57;;;;;;;0.20;0.20;;;15.90;66.00;;;;;;4981265;28;21596;-76
2024/03/05 12:05:23;;;;;;;0.30;0.30;;;15.90;65.90;;;;;;4987109;28;20471;-76
2024/03/05 12:08:09;;;;;;;0.20;0.20;;;15.90;65.90;;;;;;4988164;28;20062;-75
2024/03/05 12:10:35;;;;;;;0.30;0.30;;;15.90;65.80;;;;;;4984996;28;20054;-76
2024/03/05 12:13:01;;;;;;;0.20;0.20;;;15.80;66.10;;;;;;4984434;28;20044;-76
2024/03/05 12:15:29;;;;;;;0.30;0.30;;;15.80;66.00;;;;;;4987114;28;20054;-76
2024/03/05 12:17:55;;;;;;;0.20;0.20;;;15.80;66.00;;;;;;4984331;28;20538;-76
2024/03/05 12:20:21;;;;;;;0.35;0.13;;;15.80;65.70;;;;;;4985640;28;20054;-75
2024/03/05 12:22:50;;;;;;;0.20;0.20;;;15.90;65.80;;;;;;5001653;28;20049;-75
2024/03/05 12:25:17;;;;;;;0.20;0.20;;;15.90;65.70;;;;;;4986412;28;20080;-76
2024/03/05 12:27:49;;;;;;;0.30;0.30;;;15.90;65.90;;;;;;4986057;28;20046;-76
2024/03/05 12:30:17;;;;;;;0.20;0.20;;;15.90;66.90;;;;;;4966437;28;20080;-76
2024/03/05 12:32:46;;;;;;;0.20;0.20;;;15.80;66.40;;;;;;4987167;28;20108;-76
2024/03/05 12:35:18;;;;;;;0.20;0.20;;;15.80;66.50;;;;;;4968945;28;20528;-76
2024/03/05 12:37:44;;;;;;;0.20;0.20;;;15.80;66.60;;;;;;4986239;28;20057;-75
2024/03/05 12:40:19;;;;;;;0.30;0.30;;;15.80;66.30;;;;;;4985487;28;20039;-75
2024/03/05 12:42:45;;;;;;;0.40;0.28;;;15.80;66.40;;;;;;4999547;28;20576;-76
2024/03/05 12:45:12;;;;;;;0.20;0.15;;;15.80;66.60;;;;;;4984442;28;20073;-76
2024/03/05 12:47:38;;;;;;;0.20;0.20;;;15.80;66.50;;;;;;4969267;28;20053;-76
2024/03/05 12:50:07;;;;;;;0.20;0.20;;;15.80;66.30;;;;;;5000406;28;20042;-76
2024/03/05 12:52:32;;;;;;;0.30;0.17;;;15.90;66.40;;;;;;4995470;28;20501;-75
2024/03/05 12:54:59;;;;;;;0.43;0.20;;;15.80;66.40;;;;;;4982857;28;20049;-75
2024/03/05 12:57:28;;;;;;;0.60;0.30;;;15.80;66.30;;;;;;4985721;28;20427;-75